WEATHER DATA

YESTERDAY
Time Temp. Dewp. Hum. Wind dir Wind speed Wind gust Bar. 1h Prec. 24h Prec.
00:08 10.6 0.6 50 0 0.6 1027.4 0.0000 0.0000
00:27 10.3 0.6 51 0 0.6 1027.3 0.0000 0.0000
00:37 10.1 0.2 50 270 0.3 0.6 1027.2 0.0000 0.0000
00:48 9.9 0.2 51 270 0.3 0.6 1027.1 0.0000 0.0000
00:58 9.7 0.6 53 270 0.3 0.6 1027.1 0.0000 0.0000
01:07 9.6 0.5 53 0 0.6 1027.1 0.0000 0.0000
01:18 9.4 0.6 54 0 0.6 1027 0.0000 0.0000
01:28 9.3 0.5 54 270 0.3 0.6 1027 0.0000 0.0000
01:38 9.1 0.3 54 270 0.3 0.8 1026.8 0.0000 0.0000
01:48 9 0.2 54 270 0.3 0.6 1026.8 0.0000 0.0000
01:59 8.9 0.4 55 0 0.6 1026.8 0.0000 0.0000
02:08 8.8 0.5 56 0 0.6 1026.6 0.0000 0.0000
02:18 8.6 0.3 56 225 0.3 0.6 1026.5 0.0000 0.0000
02:29 8.5 0.5 57 0 0.6 1026.4 0.0000 0.0000
02:39 8.4 0.4 57 0 0.6 1026.3 0.0000 0.0000
02:49 8.3 0.3 57 0 0.6 1026.3 0.0000 0.0000
02:59 8.2 0.4 58 0 0.6 1026.2 0.0000 0.0000
03:09 8.1 0.3 58 0 0.3 1026.2 0.0000 0.0000
03:19 7.9 0.4 59 0 0.3 1026.2 0.0000 0.0000
03:29 7.8 0.3 59 0 0.6 1026.1 0.0000 0.0000
03:39 7.7 0.4 60 0 0.3 1026 0.0000 0.0000
03:50 7.5 0.2 60 90 0.3 0.6 1026 0.0000 0.0000
03:59 7.4 0.2 60 0 0.6 1026.1 0.0000 0.0000
04:09 7.3 0.3 61 0 0.6 1026.1 0.0000 0.0000
04:20 7.2 0.2 61 0 0.3 1026 0.0000 0.0000
04:30 7 0.2 62 0 0.3 1025.9 0.0000 0.0000
04:40 6.9 0.1 62 0 0.6 1025.8 0.0000 0.0000
04:54 6.7 0 62 0 0.3 1025.8 0.0000 0.0000
05:04 6.6 0.1 63 0 0.6 1025.8 0.0000 0.0000
05:14 6.4 -0.1 63 0 0.3 1025.8 0.0000 0.0000
05:25 6.3 -0.2 63 0 0.6 1025.9 0.0000 0.0000
05:35 6.2 -0.1 64 324 0.3 0.6 1025.9 0.0000 0.0000
05:44 6.1 -0.2 64 0 0.6 1025.9 0.0000 0.0000
05:54 6 -0.3 64 321 0.3 0.6 1026 0.0000 0.0000
06:05 5.9 -0.3 64 0 0.6 1026 0.0000 0.0000
06:15 5.8 -0.2 65 354 0.3 0.6 1026.1 0.0000 0.0000
06:25 5.8 -0.2 65 0 0.6 1026.1 0.0000 0.0000
06:36 5.7 -0.3 65 335 0.3 0.6 1026.1 0.0000 0.0000
06:45 5.7 -0.1 66 333 0.3 0.6 1026 0.0000 0.0000
06:55 5.6 -0.2 66 315 0.3 0.6 1026 0.0000 0.0000
07:05 5.6 -0.2 66 344 0.3 0.6 1026 0.0000 0.0000
07:16 5.7 -0.1 66 0 0.6 1025.9 0.0000 0.0000
07:26 5.7 0.1 67 23 0.3 0.6 1025.9 0.0000 0.0000
07:36 5.9 0.2 67 0 0.6 1025.7 0.0000 0.0000
07:46 6.3 0.4 66 333 0.3 0.6 1025.6 0.0000 0.0000
07:56 6.8 0.7 65 39 0.3 0.8 1025.6 0.0000 0.0000
08:06 7.4 1 64 8 0.3 0.8 1025.5 0.0000 0.0000
08:16 8 1.2 62 315 0.3 0.8 1025.5 0.0000 0.0000
08:27 8.4 1.1 60 270 0.3 0.8 1025.3 0.0000 0.0000
08:36 8.7 0.9 58 14 0.3 0.8 1025.2 0.0000 0.0000
08:46 8.9 0.9 57 309 0.3 1.1 1025.1 0.0000 0.0000
08:57 9.1 0.8 56 329 0.3 0.8 1024.9 0.0000 0.0000
09:07 9.2 0.6 55 309 0.3 1.4 1024.7 0.0000 0.0000
09:17 9.4 0.6 54 345 0.3 0.6 1024.5 0.0000 0.0000
09:19 9.4 0.8 55 353 0.3 1.4 1024.4 0.0000 0.0000
09:29 9.5 0.7 54 0 0.3 0.8 1024.2 0.0000 0.0000
09:39 9.6 0.5 53 345 0.3 0.8 1024 0.0000 0.0000
09:49 9.8 0.9 54 336 0.3 1.1 1023.8 0.0000 0.0000
10:00 10 0.9 53 322 0.3 0.8 1023.6 0.0000 0.0000
10:09 10.2 0.8 52 270 0.3 0.8 1023.4 0.0000 0.0000
10:19 10.4 1 52 28 0.3 0.8 1023.1 0.0000 0.0000
10:30 10.7 1 51 319 0.3 1.1 1023 0.0000 0.0000
10:40 11 1 50 323 0.3 0.8 1022.7 0.0000 0.0000
10:50 11.3 1.3 50 321 0.3 0.6 1022.6 0.0000 0.0000
11:00 11.6 1.5 50 0 0.3 0.8 1022.3 0.0000 0.0000
11:10 11.9 1.5 49 348 0.3 0.6 1022.2 0.0000 0.0000
11:20 12.3 1.6 48 90 0.6 1.4 1022 0.0000 0.0000
11:30 12.8 2.1 48 45 0.3 0.6 1021.8 0.0000 0.0000
11:41 13.5 1.8 45 270 0.3 0.8 1021.6 0.0000 0.0000
11:51 14.5 2.7 45 59 0.3 0.6 1021.4 0.0000 0.0000
12:00 15.5 2.7 42 270 0.3 1.1 1021.3 0.0000 0.0000
12:10 16.8 3.1 40 0 0.6 1.9 1021.1 0.0000 0.0000
12:21 18 3.9 39 331 0.3 1.1 1020.9 0.0000 0.0000
12:31 19.2 4.2 37 0 0.3 0.8 1020.6 0.0000 0.0000
12:41 20.2 4.7 36 315 0.3 1.1 1020.4 0.0000 0.0000
12:51 21 5 35 341 0.3 0.8 1020.1 0.0000 0.0000
13:01 21.7 4.7 33 270 0.3 1.1 1019.9 0.0000 0.0000
13:11 22.3 5.3 33 26 0.3 1.1 1019.7 0.0000 0.0000
13:21 22.9 5.3 32 90 0.3 0.8 1019.5 0.0000 0.0000
13:32 23.4 4.4 29 333 0.3 1.7 1019.2 0.0000 0.0000
13:42 23.9 4.3 28 315 0.6 1.1 1019.1 0.0000 0.0000
13:51 24.2 4.6 28 26 0.3 1.1 1019 0.0000 0.0000
14:02 24.5 5.3 29 329 0.6 1.4 1018.8 0.0000 0.0000
14:12 24.9 4.6 27 60 0.6 1.4 1018.7 0.0000 0.0000
14:22 25 4.7 27 334 0.6 1.4 1018.6 0.0000 0.0000
14:32 25.2 5.4 28 60 0.3 1.4 1018.5 0.0000 0.0000
14:43 25.2 4.9 27 30 0.6 2.5 1018.3 0.0000 0.0000
14:52 25.2 4.4 26 45 0.6 1.7 1018.3 0.0000 0.0000
15:02 25.1 4.8 27 33 0.3 1.4 1018.2 0.0000 0.0000
15:12 25.1 4.8 27 59 0.6 2.8 1018.1 0.0000 0.0000
15:23 24.9 4.6 27 341 0.6 1.7 1018 0.0000 0.0000
15:33 24.8 5.1 28 315 0.3 1.4 1017.9 0.0000 0.0000
15:42 24.6 4.4 27 57 0.8 2.2 1017.7 0.0000 0.0000
15:53 24.3 4.6 28 45 0.6 1.4 1017.6 0.0000 0.0000
16:03 24.1 5 29 36 0.6 1.7 1017.6 0.0000 0.0000
16:13 23.9 4.8 29 323 0.3 1.4 1017.7 0.0000 0.0000
16:23 23.7 5.1 30 315 0.3 1.4 1017.6 0.0000 0.0000
16:34 23.4 4.9 30 36 0.3 1.7 1017.6 0.0000 0.0000
16:43 23.2 4.2 29 45 0.6 2.8 1017.6 0.0000 0.0000
16:53 22.7 4.3 30 26 0.6 1.9 1017.7 0.0000 0.0000
17:04 22.4 4.5 31 336 0.3 1.1 1017.9 0.0000 0.0000
17:14 22.1 4.2 31 0 0.3 0.8 1017.9 0.0000 0.0000
17:24 21.8 4.4 32 11 0.3 1.1 1017.9 0.0000 0.0000
17:34 21.5 4.6 33 0 0.3 0.6 1018 0.0000 0.0000
17:44 21.2 4.3 33 0 0.3 0.8 1018 0.0000 0.0000
17:54 20.9 4.5 34 0 0.3 0.6 1018.2 0.0000 0.0000
18:04 20.5 4.1 34 333 0.3 0.6 1018.4 0.0000 0.0000
18:15 20.2 3.9 34 18 0.3 0.6 1018.5 0.0000 0.0000
18:25 19.9 4 35 348 0.3 0.6 1018.7 0.0000 0.0000
18:34 19.6 3.7 35 347 0.3 1.1 1018.8 0.0000 0.0000
18:44 19.3 3.5 35 270 0.3 0.6 1018.8 0.0000 0.0000
18:56 18.9 3.5 36 0 0.6 1018.9 0.0000 0.0000
19:06 18.6 3.6 37 270 0.3 0.8 1019 0.0000 0.0000
19:16 18.3 3.4 37 270 0.3 0.6 1019.2 0.0000 0.0000
19:26 18 3.5 38 270 0.3 0.8 1019.5 0.0000 0.0000
19:36 17.7 3.2 38 270 0.3 0.6 1019.7 0.0000 0.0000
19:46 17.4 3.7 40 315 0.3 0.6 1019.8 0.0000 0.0000
19:56 17.1 3.4 40 315 0.3 0.6 1019.9 0.0000 0.0000
20:06 16.8 3.5 41 0 0.6 1020 0.0000 0.0000
20:17 16.6 3.3 41 0 0.6 1020 0.0000 0.0000
20:27 16.3 3 41 0 0.6 1020.1 0.0000 0.0000
20:36 16.1 3.2 42 270 0.3 0.6 1020.3 0.0000 0.0000
20:47 15.8 2.9 42 270 0.3 0.8 1020.3 0.0000 0.0000
20:57 15.5 3 43 225 0.3 0.8 1020.4 0.0000 0.0000
21:07 15.3 3.1 44 45 0.3 0.6 1020.3 0.0000 0.0000
21:17 15 3.2 45 0 0.3 1020.3 0.0000 0.0000
21:28 14.8 3 45 0.3 0.8 1020.4 0.0000 0.0000
21:37 14.5 2.7 45 90 0.3 0.8 1020.3 0.0000 0.0000
21:47 14.3 2.5 45 0 0.3 1020.3 0.0000 0.0000
21:58 14.1 2.7 46 0 0.3 1020.4 0.0000 0.0000
22:08 13.8 2.4 46 315 0.3 0.8 1020.3 0.0000 0.0000
22:18 13.6 2.2 46 240 0.3 0.6 1020.3 0.0000 0.0000
22:27 13.4 2 46 270 0.3 1.1 1020.4 0.0000 0.0000
22:38 13.1 2.1 47 0.3 0.6 1020.5 0.0000 0.0000
22:48 12.9 2.2 48 171 0.3 0.6 1020.6 0.0000 0.0000
22:58 12.7 2.3 49 0 0.3 1020.7 0.0000 0.0000
23:08 12.5 2.4 50 232 0.3 0.6 1020.6 0.0000 0.0000
23:19 12.4 2.3 50 0 0.6 1020.6 0.0000 0.0000
23:28 12.2 2.1 50 0 0.6 1020.5 0.0000 0.0000
23:38 12.1 2 50 0 0.6 1020.5 0.0000 0.0000
23:49 11.9 2.1 51 239 0.3 0.6 1020.5 0.0000 0.0000

DAY STATISTIC

2019-03-24
TEMPERATURE
AVERAGE
13.9
HIGH
25.2
14:32
LOW
5.6
06:55
PRESSURE
AVERAGE
1022.3
HIGH
1027.4
00:08
LOW
1017.6
15:53
DEWPOINT
AVERAGE
2.2
HIGH
5.4
14:32
LOW
-0.3
05:54
HUMIDITY
AVERAGE
47
HIGH
67
07:26
LOW
26
14:52
WIND SPEED
AVERAGE
0.3
HIGH
0.8
15:42
WIND GUST
AVERAGE
0.8
HIGH
2.8
15:12
WIND DIRECTION
PREVAILING
NW
20.6%
N
15.6
NE
14.2
E
2.8
SE
0.0
S
0.7
SW
3.5
W
13.5
NW
20.6
PRECIPITATION
RAIN HOUR
0.0
RAIN DAY
0.0
TEMPERATURE (°C)
LOW
5.6
HIGH
25.2
AVERAGE
13.9
PRESSURE (hpa)
LOW
1017.6
HIGH
1027.4
AVERAGE
1022.3
DEVICE